createdAt,value
2022-12-26T00:02:11.435Z,6.57
2022-12-26T00:04:52.280Z,5.82
2022-12-26T00:07:19.640Z,6.20
2022-12-26T00:09:46.776Z,5.93
2022-12-26T00:12:13.894Z,6.72
2022-12-26T00:14:41.662Z,7.53
2022-12-26T00:17:08.737Z,5.72
2022-12-26T00:19:35.900Z,5.75
2022-12-26T00:22:03.091Z,5.10
2022-12-26T00:24:30.221Z,5.15
2022-12-26T00:26:57.309Z,5.45
2022-12-26T00:29:24.354Z,5.10
2022-12-26T00:31:51.477Z,5.43
2022-12-26T00:34:18.680Z,5.38
2022-12-26T00:36:45.763Z,5.10
2022-12-26T00:39:12.923Z,5.70
2022-12-26T00:41:40.022Z,5.18
2022-12-26T00:44:07.134Z,4.80
2022-12-26T00:46:33.886Z,6.38
2022-12-26T00:49:01.073Z,5.57
2022-12-26T00:51:28.109Z,6.38
2022-12-26T00:53:55.171Z,5.35
2022-12-26T00:56:22.265Z,5.93
2022-12-26T00:58:49.310Z,6.53
2022-12-26T01:01:18.092Z,5.45
2022-12-26T01:03:45.890Z,5.28
2022-12-26T01:06:13.561Z,5.05
2022-12-26T01:08:40.748Z,5.10
2022-12-26T01:11:09.341Z,6.38
2022-12-26T01:13:36.842Z,4.68
2022-12-26T01:16:04.177Z,4.13
2022-12-26T01:18:31.285Z,4.65
2022-12-26T01:21:02.861Z,4.90
2022-12-26T01:23:29.923Z,5.82
2022-12-26T01:26:17.097Z,5.00
2022-12-26T01:28:44.132Z,6.43
2022-12-26T01:31:11.224Z,6.27
2022-12-26T01:33:38.346Z,5.32
2022-12-26T01:36:05.576Z,4.93
2022-12-26T01:38:32.672Z,4.30
2022-12-26T01:41:20.278Z,4.65
2022-12-26T01:43:53.274Z,5.18
2022-12-26T01:46:22.001Z,4.03
2022-12-26T01:48:49.530Z,4.10
2022-12-26T01:51:17.442Z,4.35
2022-12-26T01:53:47.199Z,4.22
2022-12-26T01:56:16.718Z,4.40
2022-12-26T01:58:48.007Z,4.57
2022-12-26T02:01:15.301Z,4.28
2022-12-26T02:04:04.111Z,4.28
2022-12-26T02:06:31.825Z,4.50
2022-12-26T02:08:59.192Z,3.88
2022-12-26T02:11:28.419Z,3.92
2022-12-26T02:13:55.506Z,4.22
2022-12-26T02:16:22.983Z,3.85
2022-12-26T02:18:50.070Z,3.80
2022-12-26T02:21:32.724Z,4.88
2022-12-26T02:24:12.193Z,4.97
2022-12-26T02:26:39.188Z,4.70
2022-12-26T02:29:21.594Z,4.03
2022-12-26T02:31:48.724Z,4.97
2022-12-26T02:34:16.941Z,4.20
2022-12-26T02:36:51.518Z,5.20
2022-12-26T02:39:44.645Z,5.18
2022-12-26T02:42:33.503Z,4.40
2022-12-26T02:45:28.713Z,4.55
2022-12-26T02:48:03.995Z,4.25
2022-12-26T02:51:00.001Z,4.65
2022-12-26T02:53:52.986Z,4.85
2022-12-26T02:56:46.338Z,4.80
2022-12-26T02:59:54.915Z,4.32
2022-12-26T03:02:54.335Z,4.30
2022-12-26T03:05:45.268Z,4.90
2022-12-26T03:08:36.813Z,4.10
2022-12-26T03:11:24.244Z,4.25
2022-12-26T03:13:51.852Z,4.10
2022-12-26T03:16:39.566Z,4.13
2022-12-26T03:19:08.330Z,4.10
2022-12-26T03:21:37.410Z,4.10
2022-12-26T03:24:04.941Z,3.85
2022-12-26T03:26:41.688Z,4.70
2022-12-26T03:29:29.848Z,4.10
2022-12-26T03:31:57.054Z,4.22
2022-12-26T03:34:24.613Z,4.30
2022-12-26T03:36:51.691Z,4.95
2022-12-26T03:39:46.127Z,5.50
2022-12-26T03:42:53.024Z,4.20
2022-12-26T03:45:39.984Z,4.43
2022-12-26T03:48:34.190Z,3.95
2022-12-26T03:51:27.817Z,5.25
2022-12-26T03:54:27.849Z,5.63
2022-12-26T03:57:18.066Z,4.47
2022-12-26T04:00:07.927Z,4.85
2022-12-26T04:02:56.766Z,4.22
2022-12-26T04:05:45.185Z,4.13
2022-12-26T04:08:35.784Z,4.47
2022-12-26T04:11:23.707Z,5.70
2022-12-26T04:14:21.801Z,4.80
2022-12-26T04:17:09.793Z,4.68
2022-12-26T04:19:50.274Z,4.80
2022-12-26T04:22:48.818Z,4.55
2022-12-26T04:25:49.488Z,4.30
2022-12-26T04:28:38.651Z,5.00
2022-12-26T04:31:34.601Z,3.72
2022-12-26T04:34:23.101Z,5.57
2022-12-26T04:37:13.040Z,4.13
2022-12-26T04:40:00.989Z,5.57
2022-12-26T04:42:48.202Z,3.95
2022-12-26T04:45:15.686Z,4.72
2022-12-26T04:48:02.685Z,4.20
2022-12-26T04:50:29.826Z,3.88
2022-12-26T04:53:00.774Z,3.75
2022-12-26T04:55:29.182Z,3.67
2022-12-26T04:57:56.805Z,3.65
2022-12-26T05:00:25.181Z,3.90
2022-12-26T05:03:18.197Z,3.80
2022-12-26T05:06:07.764Z,10.60
2022-12-26T05:08:59.023Z,8.30
2022-12-26T05:11:26.604Z,4.28
2022-12-26T05:13:54.395Z,3.20
2022-12-26T05:16:41.665Z,4.05
2022-12-26T05:19:30.972Z,3.47
2022-12-26T05:22:18.724Z,3.90
2022-12-26T05:25:06.483Z,3.10
2022-12-26T05:27:55.670Z,4.05
2022-12-26T05:30:23.415Z,4.28
2022-12-26T05:33:10.469Z,4.80
2022-12-26T05:35:38.150Z,4.57
2022-12-26T05:38:05.323Z,4.03
2022-12-26T05:40:32.486Z,3.50
2022-12-26T05:42:59.533Z,4.25
2022-12-26T05:45:26.607Z,3.42
2022-12-26T05:48:01.689Z,4.15
2022-12-26T05:50:29.239Z,4.30
2022-12-26T05:52:58.058Z,4.00
2022-12-26T05:55:25.373Z,2.90
2022-12-26T05:57:52.678Z,3.03
2022-12-26T06:00:19.951Z,2.87
2022-12-26T06:02:47.010Z,3.28
2022-12-26T06:05:14.210Z,3.15
2022-12-26T06:07:41.342Z,3.15
2022-12-26T06:10:08.796Z,3.33
2022-12-26T06:12:35.995Z,3.70
2022-12-26T06:15:03.126Z,2.55
2022-12-26T06:17:30.225Z,2.88
2022-12-26T06:19:57.265Z,2.80
2022-12-26T06:22:24.574Z,3.65
2022-12-26T06:24:51.654Z,2.85
2022-12-26T06:27:18.716Z,2.90
2022-12-26T06:29:46.169Z,2.55
2022-12-26T06:32:13.228Z,3.33
2022-12-26T06:34:40.373Z,3.90
2022-12-26T06:37:07.432Z,2.95
2022-12-26T06:39:34.626Z,2.47
2022-12-26T06:42:01.704Z,3.53
2022-12-26T06:44:28.732Z,3.15
2022-12-26T06:46:55.897Z,2.78
2022-12-26T06:49:32.201Z,4.68
2022-12-26T06:51:59.953Z,3.55
2022-12-26T06:54:27.028Z,3.05
2022-12-26T06:56:54.144Z,3.17
2022-12-26T06:59:21.279Z,2.75
2022-12-26T07:01:49.039Z,2.60
2022-12-26T07:04:16.302Z,2.50
2022-12-26T07:06:43.467Z,3.78
2022-12-26T07:09:14.179Z,2.70
2022-12-26T07:11:43.026Z,2.63
2022-12-26T07:14:10.375Z,3.05
2022-12-26T07:16:38.392Z,3.03
2022-12-26T07:19:05.878Z,3.07
2022-12-26T07:21:39.796Z,2.73
2022-12-26T07:24:08.810Z,3.03
2022-12-26T07:26:35.941Z,4.43
2022-12-26T07:29:03.065Z,2.90
2022-12-26T07:31:30.255Z,2.90
2022-12-26T07:33:57.691Z,3.00
2022-12-26T07:36:25.724Z,3.43
2022-12-26T07:38:52.856Z,3.47
2022-12-26T07:41:40.285Z,3.22
2022-12-26T07:44:07.638Z,3.70
2022-12-26T07:46:34.855Z,3.08
2022-12-26T07:49:02.136Z,3.00
2022-12-26T07:51:29.470Z,3.20
2022-12-26T07:53:56.815Z,3.80
2022-12-26T07:56:24.275Z,4.38
2022-12-26T07:58:51.904Z,3.80
2022-12-26T08:01:19.790Z,3.00
2022-12-26T08:03:48.878Z,3.10
2022-12-26T08:06:16.152Z,3.08
2022-12-26T08:08:50.281Z,3.50
2022-12-26T08:11:19.558Z,4.15
2022-12-26T08:13:46.640Z,4.32
2022-12-26T08:16:14.894Z,4.00
2022-12-26T08:18:42.476Z,4.18
2022-12-26T08:21:10.060Z,3.55
2022-12-26T08:23:37.147Z,4.40
2022-12-26T08:26:06.113Z,4.33
2022-12-26T08:28:33.261Z,4.72
2022-12-26T08:31:00.383Z,4.32
2022-12-26T08:33:28.094Z,5.07
2022-12-26T08:35:55.167Z,4.65
2022-12-26T08:38:22.226Z,3.50
2022-12-26T08:40:57.070Z,3.60
2022-12-26T08:44:24.521Z,3.58
2022-12-26T08:46:12.376Z,3.88
2022-12-26T08:48:40.232Z,3.35
2022-12-26T08:51:08.961Z,3.93
2022-12-26T08:53:37.131Z,4.47
2022-12-26T08:56:06.227Z,3.75
2022-12-26T08:58:33.404Z,5.63
2022-12-26T09:01:09.268Z,5.20
2022-12-26T09:03:36.441Z,4.00
2022-12-26T09:06:06.153Z,4.40
2022-12-26T09:08:34.912Z,4.03
2022-12-26T09:11:04.721Z,5.07
2022-12-26T09:13:32.527Z,3.50
2022-12-26T09:16:09.061Z,4.22
2022-12-26T09:18:36.363Z,3.63
2022-12-26T09:21:04.042Z,3.95
2022-12-26T09:23:31.178Z,4.10
2022-12-26T09:26:04.378Z,4.93
2022-12-26T09:28:31.390Z,3.42
2022-12-26T09:31:02.480Z,3.78
2022-12-26T09:33:30.191Z,8.70
2022-12-26T09:36:03.315Z,4.25
2022-12-26T09:38:32.936Z,4.77
2022-12-26T09:41:08.350Z,5.20
2022-12-26T09:43:58.353Z,3.90
2022-12-26T09:46:40.929Z,4.25
2022-12-26T09:49:13.129Z,4.63
2022-12-26T09:51:42.225Z,4.10
2022-12-26T09:54:15.849Z,3.40
2022-12-26T09:59:34.958Z,4.90
2022-12-26T10:02:02.156Z,4.57
2022-12-26T10:04:30.667Z,3.88
2022-12-26T10:07:17.781Z,5.63
2022-12-26T10:09:48.146Z,5.25
2022-12-26T10:12:22.169Z,5.07
2022-12-26T10:14:54.910Z,4.80
2022-12-26T10:17:22.076Z,4.78
2022-12-26T10:19:57.607Z,4.82
2022-12-26T10:22:24.715Z,4.90
2022-12-26T10:24:52.064Z,6.50
2022-12-26T10:27:20.262Z,5.03
2022-12-26T10:29:53.972Z,5.28
2022-12-26T10:32:28.042Z,5.78
2022-12-26T10:34:55.453Z,5.97
2022-12-26T10:37:28.354Z,5.28
2022-12-26T10:40:01.650Z,5.85
2022-12-26T10:42:31.615Z,5.93
2022-12-26T10:44:59.449Z,5.78
2022-12-26T10:47:36.877Z,6.20
2022-12-26T10:50:04.729Z,4.68
2022-12-26T10:52:34.771Z,4.50
2022-12-26T10:55:29.233Z,5.72
2022-12-26T10:57:50.721Z,4.32
2022-12-26T11:00:21.967Z,4.57
2022-12-26T11:03:09.087Z,4.07
2022-12-26T11:08:28.252Z,0.30
2022-12-26T11:11:05.272Z,0.55
2022-12-26T11:13:34.588Z,0.38
2022-12-26T11:16:02.420Z,0.80
2022-12-26T11:18:49.507Z,0.40
2022-12-26T11:21:19.861Z,0.40
2022-12-26T11:23:49.315Z,0.20
2022-12-26T11:26:25.238Z,1.00
2022-12-26T11:29:06.029Z,0.30
2022-12-26T11:31:33.394Z,0.35
2022-12-26T11:34:01.547Z,0.20
2022-12-26T11:36:29.364Z,0.30
2022-12-26T11:38:58.168Z,0.20
2022-12-26T11:41:32.545Z,0.30
2022-12-26T11:44:03.695Z,0.20
2022-12-26T11:46:36.266Z,0.60
2022-12-26T11:49:03.963Z,1.50
2022-12-26T11:51:33.988Z,0.17
2022-12-26T11:54:20.935Z,0.60
2022-12-26T11:56:48.277Z,0.33
2022-12-26T11:59:20.438Z,0.77
2022-12-26T12:01:47.652Z,0.47
2022-12-26T12:04:15.033Z,0.65
2022-12-26T12:06:47.133Z,0.80
2022-12-26T12:09:15.328Z,0.30
2022-12-26T12:11:49.069Z,0.60
2022-12-26T12:14:36.078Z,0.20
2022-12-26T12:17:04.133Z,0.60
2022-12-26T12:19:34.470Z,0.40
2022-12-26T12:22:01.565Z,1.00
2022-12-26T12:24:34.192Z,0.38
2022-12-26T12:27:09.316Z,0.20
2022-12-26T12:29:45.239Z,3.30
2022-12-26T12:32:34.204Z,0.50
2022-12-26T12:35:08.636Z,0.30
2022-12-26T12:37:55.640Z,0.70
2022-12-26T12:40:25.532Z,0.60
2022-12-26T12:42:52.546Z,0.50
2022-12-26T12:45:20.633Z,0.50
2022-12-26T12:47:48.708Z,0.60
2022-12-26T12:50:35.677Z,1.20
2022-12-26T12:53:22.678Z,0.40
2022-12-26T12:55:53.054Z,0.10
2022-12-26T12:58:25.991Z,0.30
2022-12-26T13:00:54.814Z,0.60
2022-12-26T13:03:41.854Z,2.00
2022-12-26T13:06:12.767Z,0.50
2022-12-26T13:08:42.290Z,0.63
2022-12-26T13:11:14.291Z,1.20
2022-12-26T13:13:49.998Z,0.10
2022-12-26T13:16:26.395Z,3.22
2022-12-26T13:18:56.599Z,1.70
2022-12-26T13:21:23.799Z,1.80
2022-12-26T13:24:13.580Z,2.15
2022-12-26T13:26:43.054Z,1.40
2022-12-26T13:29:10.075Z,1.98
2022-12-26T13:31:38.351Z,2.23
2022-12-26T13:34:08.229Z,1.80
2022-12-26T13:36:47.726Z,2.08
2022-12-26T13:39:14.755Z,1.80
2022-12-26T13:42:21.659Z,1.52
2022-12-26T13:44:53.444Z,1.67
2022-12-26T13:47:37.742Z,1.83
2022-12-26T13:50:24.726Z,1.98
2022-12-26T13:52:53.226Z,3.17
2022-12-26T13:55:29.274Z,2.00
2022-12-26T13:58:16.285Z,2.30
2022-12-26T14:00:46.619Z,2.40
2022-12-26T14:03:31.013Z,2.10
2022-12-26T14:06:01.411Z,2.63
2022-12-26T14:08:54.620Z,2.30
2022-12-26T14:11:22.154Z,2.63
2022-12-26T14:14:09.833Z,2.38
2022-12-26T14:16:41.296Z,2.50
2022-12-26T14:19:28.293Z,2.50
2022-12-26T14:22:15.257Z,2.92
2022-12-26T14:24:47.226Z,2.05
2022-12-26T14:27:24.606Z,2.60
2022-12-26T14:30:01.025Z,2.37
2022-12-26T14:32:50.847Z,3.58
2022-12-26T14:35:37.901Z,2.22
2022-12-26T14:38:05.978Z,2.05
2022-12-26T14:40:35.233Z,1.90
2022-12-26T14:43:17.800Z,1.98
2022-12-26T14:45:46.418Z,1.90
2022-12-26T14:48:16.799Z,1.90
2022-12-26T14:50:52.228Z,2.05
2022-12-26T14:53:27.569Z,2.90
2022-12-26T14:55:58.226Z,1.70
2022-12-26T14:58:25.263Z,2.60
2022-12-26T15:00:52.747Z,3.25
2022-12-26T15:03:35.352Z,2.15
2022-12-26T15:06:16.102Z,2.03
2022-12-26T15:09:22.618Z,2.70
2022-12-26T15:11:49.652Z,2.60
2022-12-26T15:14:36.663Z,2.13
2022-12-26T15:17:09.204Z,2.10
2022-12-26T15:19:51.984Z,2.27
2022-12-26T15:22:38.929Z,3.35
2022-12-26T15:25:18.776Z,2.50
2022-12-26T15:28:00.211Z,3.20
2022-12-26T15:30:40.449Z,2.85
2022-12-26T15:33:11.690Z,3.60
2022-12-26T15:35:47.252Z,2.42
2022-12-26T15:38:34.223Z,2.77
2022-12-26T15:41:31.890Z,3.65
2022-12-26T15:44:02.228Z,3.90
2022-12-26T15:46:31.724Z,9.70
2022-12-26T15:48:58.975Z,4.15
2022-12-26T15:51:41.719Z,2.60
2022-12-26T15:54:12.075Z,3.13
2022-12-26T15:56:49.225Z,3.30
2022-12-26T15:59:32.041Z,3.28
2022-12-26T16:01:59.440Z,2.92
2022-12-26T16:04:30.869Z,2.50
2022-12-26T16:07:17.920Z,2.20
2022-12-26T16:09:46.736Z,3.20
2022-12-26T16:12:20.883Z,3.35
2022-12-26T16:14:48.252Z,3.35
2022-12-26T16:17:15.331Z,2.60
2022-12-26T16:19:43.395Z,6.78
2022-12-26T16:22:36.528Z,7.10
2022-12-26T16:25:03.774Z,6.10
2022-12-26T16:27:31.515Z,5.63
2022-12-26T16:30:02.072Z,4.93
2022-12-26T16:32:35.667Z,4.68
2022-12-26T16:35:03.279Z,4.20
2022-12-26T16:37:31.144Z,4.55
2022-12-26T16:40:06.861Z,3.20
2022-12-26T16:42:34.535Z,3.88
2022-12-26T16:45:01.889Z,4.73
2022-12-26T16:47:30.786Z,3.70
2022-12-26T16:49:58.697Z,3.17
2022-12-26T16:52:46.324Z,3.10
2022-12-26T16:55:34.229Z,3.42
2022-12-26T16:58:03.131Z,3.40
2022-12-26T17:00:31.201Z,3.80
2022-12-26T17:02:59.734Z,3.97
2022-12-26T17:05:29.353Z,2.60
2022-12-26T17:07:58.077Z,2.60
2022-12-26T17:10:26.691Z,0.60
2022-12-26T17:12:54.723Z,0.20
2022-12-26T17:15:24.770Z,0.20
2022-12-26T17:17:51.880Z,0.40
2022-12-26T17:20:26.288Z,0.30
2022-12-26T17:22:54.412Z,0.47
2022-12-26T17:25:26.494Z,4.00
2022-12-26T17:28:09.771Z,0.40
2022-12-26T17:30:41.914Z,0.47
2022-12-26T17:33:09.951Z,0.20
2022-12-26T17:36:33.023Z,0.33
2022-12-26T17:38:25.727Z,0.38
2022-12-26T17:40:54.435Z,0.45
2022-12-26T17:43:30.249Z,0.25
2022-12-26T17:45:57.540Z,0.70
2022-12-26T17:48:24.877Z,0.32
2022-12-26T17:50:55.926Z,0.40
2022-12-26T17:53:22.995Z,0.33
2022-12-26T17:55:50.572Z,0.20
2022-12-26T17:58:17.816Z,0.30
2022-12-26T18:00:45.724Z,0.60
2022-12-26T18:03:12.958Z,0.30
2022-12-26T18:05:40.379Z,0.20
2022-12-26T18:08:07.804Z,0.30
2022-12-26T18:10:36.113Z,0.28
2022-12-26T18:13:03.281Z,0.35
2022-12-26T18:15:31.478Z,0.20
2022-12-26T18:17:58.610Z,3.63
2022-12-26T18:20:28.031Z,4.25
2022-12-26T18:22:55.579Z,4.25
2022-12-26T18:25:24.086Z,4.00
2022-12-26T18:27:51.667Z,3.45
2022-12-26T18:30:19.939Z,3.03
2022-12-26T18:32:47.735Z,3.30
2022-12-26T18:35:15.181Z,2.50
2022-12-26T18:37:44.364Z,2.72
2022-12-26T18:40:24.519Z,2.65
2022-12-26T18:42:51.215Z,2.57
2022-12-26T18:45:17.875Z,2.50
2022-12-26T18:47:45.018Z,2.10
2022-12-26T18:50:12.852Z,2.60
2022-12-26T18:52:39.897Z,0.10
2022-12-26T18:55:06.995Z,0.20
2022-12-26T18:57:34.099Z,0.30
2022-12-26T19:00:01.216Z,0.15
2022-12-26T19:02:28.442Z,0.30
2022-12-26T19:04:55.604Z,0.20
2022-12-26T19:07:22.749Z,0.10
2022-12-26T19:09:51.183Z,0.10
2022-12-26T19:12:18.511Z,0.20
2022-12-26T19:14:45.839Z,0.10
2022-12-26T19:17:12.961Z,0.40
2022-12-26T19:19:40.127Z,0.40
2022-12-26T19:22:07.234Z,0.10
2022-12-26T19:24:34.607Z,0.10
2022-12-26T19:27:02.098Z,0.10
2022-12-26T19:29:29.360Z,0.10
2022-12-26T19:31:56.642Z,0.10
2022-12-26T19:34:24.018Z,0.20
2022-12-26T19:36:51.118Z,0.10
2022-12-26T19:39:18.285Z,0.20
2022-12-26T19:41:45.550Z,0.13
2022-12-26T19:44:12.696Z,0.10
2022-12-26T19:46:39.905Z,0.40
2022-12-26T19:49:07.005Z,0.20
2022-12-26T19:51:33.765Z,0.10
2022-12-26T19:54:00.860Z,0.10
2022-12-26T19:56:28.673Z,0.10
2022-12-26T19:58:56.880Z,0.10
2022-12-26T20:01:25.840Z,0.30
2022-12-26T20:03:57.068Z,0.35
2022-12-26T20:06:25.992Z,0.27
2022-12-26T20:08:53.700Z,0.25
2022-12-26T20:11:22.483Z,1.17
2022-12-26T20:13:49.937Z,0.40
2022-12-26T20:16:54.566Z,0.50
2022-12-26T20:19:06.641Z,0.20
2022-12-26T20:21:33.983Z,0.30
2022-12-26T20:24:01.870Z,0.20
2022-12-26T20:26:29.283Z,0.20
2022-12-26T20:28:57.554Z,0.40
2022-12-26T20:31:25.013Z,0.10
2022-12-26T20:33:52.769Z,0.20
2022-12-26T20:36:21.654Z,0.20
2022-12-26T20:38:51.193Z,0.20
2022-12-26T20:41:18.577Z,0.40
2022-12-26T20:43:45.759Z,0.50
2022-12-26T20:46:14.401Z,0.30
2022-12-26T20:48:41.603Z,0.30
2022-12-26T20:51:09.605Z,0.70
2022-12-26T20:53:36.933Z,0.20
2022-12-26T20:56:04.014Z,0.20
2022-12-26T20:58:34.356Z,0.60
2022-12-26T21:01:04.652Z,0.20
2022-12-26T21:03:32.490Z,0.40
2022-12-26T21:06:07.775Z,0.20
2022-12-26T21:08:35.330Z,0.20
2022-12-26T21:11:06.977Z,0.30
2022-12-26T21:13:35.489Z,0.55
2022-12-26T21:16:11.656Z,0.47
2022-12-26T21:18:38.901Z,0.20
2022-12-26T21:21:07.038Z,0.25
2022-12-26T21:23:34.725Z,0.20
2022-12-26T21:26:01.897Z,0.40
2022-12-26T21:28:29.052Z,0.10
2022-12-26T21:30:56.167Z,1.00
2022-12-26T21:33:23.497Z,0.10
2022-12-26T21:35:53.178Z,0.10
2022-12-26T21:38:21.809Z,0.10
2022-12-26T21:40:49.216Z,0.10
2022-12-26T21:43:16.592Z,0.10
2022-12-26T21:45:43.999Z,0.17
2022-12-26T21:48:11.200Z,0.20
2022-12-26T21:50:38.274Z,0.20
2022-12-26T21:53:05.367Z,0.20
2022-12-26T21:55:36.230Z,0.10
2022-12-26T21:58:03.924Z,0.07
2022-12-26T22:00:33.112Z,0.08
2022-12-26T22:03:20.171Z,0.10
2022-12-26T22:05:47.266Z,0.20
2022-12-26T22:08:15.149Z,0.10
2022-12-26T22:11:04.878Z,0.22
2022-12-26T22:13:38.247Z,0.20
2022-12-26T22:16:07.793Z,0.10
2022-12-26T22:18:38.262Z,0.20
2022-12-26T22:21:08.327Z,0.10
2022-12-26T22:23:35.915Z,0.10
2022-12-26T22:26:03.329Z,0.17
2022-12-26T22:28:30.624Z,0.10
2022-12-26T22:30:57.972Z,0.10
2022-12-26T22:33:25.150Z,0.03
2022-12-26T22:35:52.294Z,0.17
2022-12-26T22:38:19.950Z,0.10
2022-12-26T22:40:55.520Z,0.10
2022-12-26T22:43:23.080Z,0.10
2022-12-26T22:45:50.455Z,0.20
2022-12-26T22:48:18.003Z,0.13
2022-12-26T22:50:45.388Z,0.68
2022-12-26T22:53:12.423Z,1.30
2022-12-26T22:55:47.848Z,1.30
2022-12-26T22:58:15.273Z,1.77
2022-12-26T23:00:42.800Z,1.98
2022-12-26T23:03:10.100Z,1.75
2022-12-26T23:05:38.054Z,1.83
2022-12-26T23:08:05.802Z,2.28
2022-12-26T23:10:33.432Z,1.35
2022-12-26T23:13:01.114Z,1.50
2022-12-26T23:15:29.139Z,1.77
2022-12-26T23:18:21.981Z,1.63
2022-12-26T23:21:08.980Z,1.23
2022-12-26T23:23:36.180Z,1.75
2022-12-26T23:26:03.269Z,1.40
2022-12-26T23:28:50.530Z,1.75
2022-12-26T23:31:17.637Z,1.70
2022-12-26T23:33:44.750Z,1.60
2022-12-26T23:36:11.750Z,1.38
2022-12-26T23:38:38.778Z,1.00
2022-12-26T23:41:05.921Z,1.70
2022-12-26T23:43:33.571Z,3.00
2022-12-26T23:46:01.035Z,1.65
2022-12-26T23:48:27.859Z,1.55
2022-12-26T23:51:03.649Z,2.30
2022-12-26T23:53:30.971Z,1.30
2022-12-26T23:55:58.463Z,2.85
2022-12-26T23:58:25.184Z,1.30
